createdAt,value
2022-08-04T00:01:30.545Z,2.58
2022-08-04T00:06:29.016Z,2.63
2022-08-04T00:11:26.588Z,2.22
2022-08-04T00:16:21.652Z,2.17
2022-08-04T00:21:16.983Z,2.58
2022-08-04T00:26:11.797Z,2.72
2022-08-04T00:31:06.743Z,2.13
2022-08-04T00:36:03.348Z,2.40
2022-08-04T00:41:01.764Z,2.60
2022-08-04T00:46:00.511Z,2.78
2022-08-04T00:51:11.447Z,3.42
2022-08-04T00:56:25.205Z,3.47
2022-08-04T01:01:38.490Z,3.90
2022-08-04T01:06:44.440Z,3.80
2022-08-04T01:12:20.917Z,4.47
2022-08-04T01:17:30.198Z,4.45
2022-08-04T01:22:35.382Z,3.35
2022-08-04T01:27:31.348Z,3.10
2022-08-04T01:33:07.957Z,2.95
2022-08-04T01:38:20.093Z,3.67
2022-08-04T01:43:15.861Z,3.03
2022-08-04T01:48:09.211Z,2.60
2022-08-04T01:53:03.098Z,3.67
2022-08-04T01:58:00.631Z,2.97
2022-08-04T02:02:55.773Z,3.50
2022-08-04T02:08:07.406Z,3.13
2022-08-04T02:13:00.758Z,3.20
2022-08-04T02:18:17.108Z,2.47
2022-08-04T02:23:38.167Z,2.50
2022-08-04T02:28:40.601Z,2.25
2022-08-04T02:33:43.102Z,2.20
2022-08-04T02:39:00.993Z,2.38
2022-08-04T02:43:57.716Z,2.50
2022-08-04T02:48:53.842Z,2.70
2022-08-04T02:53:48.637Z,2.50
2022-08-04T02:58:43.337Z,3.22
2022-08-04T03:03:39.570Z,3.40
2022-08-04T03:08:37.687Z,2.58
2022-08-04T03:13:49.721Z,2.33
2022-08-04T03:18:54.742Z,3.00
2022-08-04T03:24:25.406Z,3.33
2022-08-04T03:30:00.622Z,3.92
2022-08-04T03:35:13.615Z,3.47
2022-08-04T03:40:27.214Z,3.67
2022-08-04T03:45:51.258Z,3.38
2022-08-04T03:51:35.125Z,3.60
2022-08-04T03:57:03.093Z,3.22
2022-08-04T04:07:36.255Z,2.90
2022-08-04T04:12:35.616Z,3.88
2022-08-04T04:17:47.172Z,3.80
2022-08-04T04:22:49.383Z,4.07
2022-08-04T04:28:44.857Z,3.58
2022-08-04T04:33:48.922Z,3.55
2022-08-04T04:39:19.148Z,3.65
2022-08-04T04:44:30.887Z,2.83
2022-08-04T04:49:32.590Z,2.80
2022-08-04T04:54:40.755Z,3.13
2022-08-04T04:59:36.532Z,3.38
2022-08-04T05:05:07.735Z,2.90
2022-08-04T05:10:16.599Z,3.13
2022-08-04T05:15:11.540Z,3.25
2022-08-04T05:20:16.885Z,3.80
2022-08-04T05:25:22.086Z,4.05
2022-08-04T05:30:16.808Z,4.45
2022-08-04T05:35:47.837Z,4.43
2022-08-04T05:40:31.123Z,4.22
2022-08-04T05:45:25.373Z,4.68
2022-08-04T05:50:24.139Z,4.15
2022-08-04T05:55:57.398Z,3.65
2022-08-04T06:00:40.683Z,3.60
2022-08-04T06:05:35.510Z,3.38
2022-08-04T06:10:30.136Z,3.90
2022-08-04T06:15:26.228Z,3.42
2022-08-04T06:20:34.569Z,2.95
2022-08-04T06:25:37.269Z,3.75
2022-08-04T06:30:32.756Z,3.03
2022-08-04T06:35:27.682Z,4.13
2022-08-04T06:40:31.900Z,2.95
2022-08-04T06:45:27.130Z,2.58
2022-08-04T06:51:24.724Z,2.60
2022-08-04T06:55:34.740Z,3.72
2022-08-04T07:00:28.391Z,3.40
2022-08-04T07:05:22.327Z,3.63
2022-08-04T07:10:22.136Z,3.17
2022-08-04T07:15:19.185Z,3.17
2022-08-04T07:20:13.140Z,2.08
2022-08-04T07:25:13.871Z,3.85
2022-08-04T07:30:09.505Z,2.75
2022-08-04T07:35:02.333Z,3.03
2022-08-04T07:39:56.304Z,2.53
2022-08-04T07:44:51.782Z,3.17
2022-08-04T07:49:57.001Z,3.83
2022-08-04T07:54:52.307Z,2.55
2022-08-04T07:59:49.987Z,3.33
2022-08-04T08:04:45.119Z,3.08
2022-08-04T08:09:38.773Z,2.90
2022-08-04T08:14:32.542Z,2.75
2022-08-04T08:19:26.388Z,2.08
2022-08-04T08:24:21.017Z,2.65
2022-08-04T08:29:14.842Z,2.33
2022-08-04T08:34:09.716Z,3.38
2022-08-04T08:39:24.864Z,2.65
2022-08-04T08:44:56.044Z,2.70
2022-08-04T08:50:05.173Z,3.72
2022-08-04T08:55:20.825Z,1.75
2022-08-04T09:00:43.572Z,2.50
2022-08-04T09:05:54.443Z,1.67
2022-08-04T09:10:49.163Z,2.42
2022-08-04T09:16:12.148Z,1.35
2022-08-04T09:21:18.994Z,1.50
2022-08-04T09:26:28.596Z,2.25
2022-08-04T09:31:25.626Z,1.10
2022-08-04T09:36:54.594Z,1.83
2022-08-04T09:42:31.225Z,1.33
2022-08-04T09:47:39.637Z,1.30
2022-08-04T09:53:11.264Z,0.93
2022-08-04T09:58:23.187Z,1.13
2022-08-04T10:03:20.285Z,1.13
2022-08-04T10:08:17.528Z,1.30
2022-08-04T10:13:27.773Z,0.90
2022-08-04T10:18:46.462Z,1.10
2022-08-04T10:24:16.351Z,0.90
2022-08-04T10:29:19.220Z,1.85
2022-08-04T10:34:20.543Z,0.75
2022-08-04T10:39:42.993Z,0.65
2022-08-04T10:45:16.220Z,1.30
2022-08-04T10:50:11.318Z,0.70
2022-08-04T10:55:23.045Z,1.00
2022-08-04T11:00:37.564Z,0.68
2022-08-04T11:05:51.956Z,1.00
2022-08-04T11:11:12.451Z,0.80
2022-08-04T11:16:10.486Z,0.70
2022-08-04T11:21:29.523Z,0.98
2022-08-04T11:26:28.780Z,0.80
2022-08-04T11:31:32.928Z,1.23
2022-08-04T11:36:29.502Z,0.77
2022-08-04T11:41:48.085Z,1.10
2022-08-04T11:46:52.155Z,1.00
2022-08-04T11:51:47.265Z,0.60
2022-08-04T11:56:40.255Z,0.60
2022-08-04T12:01:47.137Z,1.00
2022-08-04T12:07:30.596Z,1.05
2022-08-04T12:12:44.380Z,1.00
2022-08-04T12:18:07.554Z,0.90
2022-08-04T12:23:02.676Z,0.70
2022-08-04T12:28:16.628Z,0.90
2022-08-04T12:33:17.902Z,0.70
2022-08-04T12:38:20.597Z,0.68
2022-08-04T12:43:21.146Z,0.68
2022-08-04T12:48:20.754Z,1.00
2022-08-04T12:53:31.262Z,1.15
2022-08-04T12:58:41.900Z,0.93
2022-08-04T13:03:59.678Z,0.93
2022-08-04T13:08:54.395Z,0.80
2022-08-04T13:14:00.683Z,0.90
2022-08-04T13:19:05.431Z,0.80
2022-08-04T13:24:31.013Z,0.52
2022-08-04T13:30:00.645Z,0.80
2022-08-04T13:34:58.778Z,0.50
2022-08-04T13:39:55.728Z,0.95
2022-08-04T13:44:54.170Z,0.85
2022-08-04T13:50:28.299Z,0.93
2022-08-04T13:55:37.017Z,1.13
2022-08-04T14:00:50.572Z,1.20
2022-08-04T14:05:59.686Z,0.80
2022-08-04T14:10:58.505Z,1.83
2022-08-04T14:16:01.721Z,0.98
2022-08-04T14:20:59.448Z,0.77
2022-08-04T14:25:54.043Z,1.00
2022-08-04T14:30:48.761Z,0.90
2022-08-04T14:35:50.024Z,0.95
2022-08-04T14:40:46.367Z,1.17
2022-08-04T14:45:54.213Z,0.90
2022-08-04T14:50:51.544Z,1.00
2022-08-04T14:55:47.874Z,1.10
2022-08-04T15:00:41.806Z,0.88
2022-08-04T15:05:55.577Z,0.90
2022-08-04T15:10:51.258Z,1.20
2022-08-04T15:16:07.209Z,0.95
2022-08-04T15:21:00.500Z,0.80
2022-08-04T15:25:58.036Z,1.08
2022-08-04T15:30:53.470Z,1.10
2022-08-04T15:35:48.054Z,1.15
2022-08-04T15:41:00.981Z,0.80
2022-08-04T15:46:42.500Z,1.10
2022-08-04T15:51:16.874Z,1.25
2022-08-04T15:56:31.334Z,1.13
2022-08-04T16:01:25.950Z,1.20
2022-08-04T16:06:21.625Z,1.40
2022-08-04T16:11:30.912Z,1.00
2022-08-04T16:16:37.305Z,1.33
2022-08-04T16:21:30.832Z,1.27
2022-08-04T16:26:37.927Z,1.20
2022-08-04T16:31:34.711Z,1.15
2022-08-04T16:36:58.553Z,1.10
2022-08-04T16:41:51.550Z,1.10
2022-08-04T16:47:22.213Z,1.27
2022-08-04T16:52:04.215Z,1.00
2022-08-04T16:56:59.222Z,1.13
2022-08-04T17:01:54.071Z,0.90
2022-08-04T17:06:48.242Z,1.83
2022-08-04T17:11:47.171Z,1.17
2022-08-04T17:16:43.833Z,1.52
2022-08-04T17:21:41.711Z,1.20
2022-08-04T17:26:39.907Z,1.60
2022-08-04T17:31:36.184Z,1.40
2022-08-04T17:36:32.149Z,1.33
2022-08-04T17:41:39.064Z,1.60
2022-08-04T17:46:37.300Z,1.33
2022-08-04T17:52:04.930Z,1.45
2022-08-04T17:57:22.180Z,1.40
2022-08-04T18:02:31.954Z,2.15
2022-08-04T18:08:40.152Z,1.70
2022-08-04T18:12:57.145Z,1.63
2022-08-04T18:18:22.048Z,1.70
2022-08-04T18:23:13.248Z,1.63
2022-08-04T18:28:14.400Z,1.60
2022-08-04T18:33:40.707Z,2.22
2022-08-04T18:38:24.103Z,1.90
2022-08-04T18:43:17.892Z,1.63
2022-08-04T18:48:22.741Z,1.90
2022-08-04T18:53:34.901Z,1.90
2022-08-04T18:58:30.262Z,1.85
2022-08-04T19:03:23.424Z,2.72
2022-08-04T19:08:34.967Z,1.75
2022-08-04T19:13:34.859Z,1.80
2022-08-04T19:18:28.315Z,1.98
2022-08-04T19:24:27.957Z,1.98
2022-08-04T19:28:37.129Z,1.90
2022-08-04T19:33:59.577Z,1.98
2022-08-04T19:38:44.402Z,1.95
2022-08-04T19:43:39.030Z,2.20
2022-08-04T19:48:37.908Z,1.60
2022-08-04T19:53:36.974Z,2.13
2022-08-04T19:58:31.851Z,2.13
2022-08-04T20:04:10.127Z,1.83
2022-08-04T20:13:55.030Z,2.20
2022-08-04T20:18:57.037Z,2.30
2022-08-04T20:23:53.517Z,2.15
2022-08-04T20:28:52.589Z,2.10
2022-08-04T20:33:54.779Z,2.20
2022-08-04T20:44:03.731Z,2.53
2022-08-04T20:48:58.077Z,3.00
2022-08-04T20:53:53.286Z,2.03
2022-08-04T20:58:47.856Z,2.60
2022-08-04T21:04:00.845Z,2.45
2022-08-04T21:08:57.340Z,2.13
2022-08-04T21:13:52.667Z,2.67
2022-08-04T21:18:46.453Z,2.63
2022-08-04T21:23:43.511Z,2.75
2022-08-04T21:28:37.978Z,3.75
2022-08-04T21:33:50.009Z,2.78
2022-08-04T21:38:51.787Z,3.17
2022-08-04T21:43:47.080Z,3.22
2022-08-04T21:48:42.480Z,4.03
2022-08-04T21:53:36.729Z,3.67
2022-08-04T21:58:32.928Z,3.10
2022-08-04T22:03:51.751Z,3.05
2022-08-04T22:08:49.411Z,2.90
2022-08-04T22:13:52.564Z,3.22
2022-08-04T22:18:57.875Z,2.70
2022-08-04T22:23:54.584Z,2.50
2022-08-04T22:28:49.751Z,2.30
2022-08-04T22:33:55.445Z,2.55
2022-08-04T22:39:00.316Z,2.70
2022-08-04T22:44:00.517Z,3.00
2022-08-04T22:48:55.062Z,2.50
2022-08-04T22:53:49.595Z,3.60
2022-08-04T22:58:51.030Z,3.17
2022-08-04T23:03:50.897Z,3.22
2022-08-04T23:08:50.581Z,3.60
2022-08-04T23:13:44.949Z,2.47
2022-08-04T23:18:45.199Z,3.10
2022-08-04T23:23:45.466Z,3.17
2022-08-04T23:28:50.235Z,2.47
2022-08-04T23:33:49.336Z,2.60
2022-08-04T23:38:46.343Z,2.63
2022-08-04T23:43:55.145Z,3.05
2022-08-04T23:48:50.002Z,3.47
2022-08-04T23:54:02.464Z,3.45
2022-08-04T23:58:58.066Z,3.33
